sensor_id;sensor_type;location;lat;lon;timestamp;temperature;humidity
44817;DHT22;30529;53.570;9.964;2023-01-01T00:01:41;14.60;99.90
44817;DHT22;30529;53.570;9.964;2023-01-01T00:04:11;14.60;99.90
44817;DHT22;30529;53.570;9.964;2023-01-01T00:06:38;14.60;99.90
44817;DHT22;30529;53.570;9.964;2023-01-01T00:09:04;14.50;99.90
44817;DHT22;30529;53.570;9.964;2023-01-01T00:11:48;14.60;99.90
44817;DHT22;30529;53.570;9.964;2023-01-01T00:14:14;14.60;99.90
44817;DHT22;30529;53.570;9.964;2023-01-01T00:16:40;14.60;99.90
44817;DHT22;30529;53.570;9.964;2023-01-01T00:19:06;14.60;99.90
44817;DHT22;30529;53.570;9.964;2023-01-01T00:21:32;14.60;99.90
44817;DHT22;30529;53.570;9.964;2023-01-01T00:24:01;14.60;99.90
44817;DHT22;30529;53.570;9.964;2023-01-01T00:26:27;14.60;99.90
44817;DHT22;30529;53.570;9.964;2023-01-01T00:28:53;14.70;99.90
44817;DHT22;30529;53.570;9.964;2023-01-01T00:31:20;14.60;99.90
44817;DHT22;30529;53.570;9.964;2023-01-01T00:33:51;14.60;99.90
44817;DHT22;30529;53.570;9.964;2023-01-01T00:36:19;14.70;99.90
44817;DHT22;30529;53.570;9.964;2023-01-01T00:38:47;14.60;99.90
44817;DHT22;30529;53.570;9.964;2023-01-01T00:41:16;14.60;99.90
44817;DHT22;30529;53.570;9.964;2023-01-01T00:43:46;14.60;99.90
44817;DHT22;30529;53.570;9.964;2023-01-01T00:46:12;14.60;99.90
44817;DHT22;30529;53.570;9.964;2023-01-01T00:48:39;14.70;99.90
44817;DHT22;30529;53.570;9.964;2023-01-01T00:51:05;14.70;99.90
44817;DHT22;30529;53.570;9.964;2023-01-01T00:53:32;14.60;99.90
44817;DHT22;30529;53.570;9.964;2023-01-01T00:55:58;14.60;99.90
44817;DHT22;30529;53.570;9.964;2023-01-01T00:58:24;14.70;99.90
44817;DHT22;30529;53.570;9.964;2023-01-01T01:00:51;14.60;99.90
44817;DHT22;30529;53.570;9.964;2023-01-01T01:03:20;14.70;99.90
44817;DHT22;30529;53.570;9.964;2023-01-01T01:08:29;14.70;99.90
44817;DHT22;30529;53.570;9.964;2023-01-01T01:13:32;14.70;99.90
44817;DHT22;30529;53.570;9.964;2023-01-01T01:15:58;14.70;99.90
44817;DHT22;30529;53.570;9.964;2023-01-01T01:18:24;14.70;99.90
44817;DHT22;30529;53.570;9.964;2023-01-01T01:20:51;14.70;99.90
44817;DHT22;30529;53.570;9.964;2023-01-01T01:23:19;14.70;99.90
44817;DHT22;30529;53.570;9.964;2023-01-01T01:25:46;14.70;99.90
44817;DHT22;30529;53.570;9.964;2023-01-01T01:28:12;14.70;99.90
44817;DHT22;30529;53.570;9.964;2023-01-01T01:30:38;14.70;99.90
44817;DHT22;30529;53.570;9.964;2023-01-01T01:33:05;14.80;99.90
44817;DHT22;30529;53.570;9.964;2023-01-01T01:35:31;14.80;99.90
44817;DHT22;30529;53.570;9.964;2023-01-01T01:37:58;14.70;99.90
44817;DHT22;30529;53.570;9.964;2023-01-01T01:40:24;14.80;99.90
44817;DHT22;30529;53.570;9.964;2023-01-01T01:42:50;14.70;99.90
44817;DHT22;30529;53.570;9.964;2023-01-01T01:45:17;14.70;99.90
44817;DHT22;30529;53.570;9.964;2023-01-01T01:47:56;14.80;99.90
44817;DHT22;30529;53.570;9.964;2023-01-01T01:50:31;14.80;99.90
44817;DHT22;30529;53.570;9.964;2023-01-01T01:53:04;14.80;99.90
44817;DHT22;30529;53.570;9.964;2023-01-01T01:55:34;14.80;99.90
44817;DHT22;30529;53.570;9.964;2023-01-01T01:58:01;14.80;99.90
44817;DHT22;30529;53.570;9.964;2023-01-01T02:00:29;14.80;99.90
44817;DHT22;30529;53.570;9.964;2023-01-01T02:06:33;14.80;99.90
44817;DHT22;30529;53.570;9.964;2023-01-01T02:09:13;14.80;99.90
44817;DHT22;30529;53.570;9.964;2023-01-01T02:11:39;14.80;99.90
44817;DHT22;30529;53.570;9.964;2023-01-01T02:14:06;14.80;99.90
44817;DHT22;30529;53.570;9.964;2023-01-01T02:16:45;14.90;99.90
44817;DHT22;30529;53.570;9.964;2023-01-01T02:24:57;14.90;99.90
44817;DHT22;30529;53.570;9.964;2023-01-01T02:27:50;14.80;99.90
44817;DHT22;30529;53.570;9.964;2023-01-01T02:30:19;14.90;99.90
44817;DHT22;30529;53.570;9.964;2023-01-01T02:32:57;14.90;99.90
44817;DHT22;30529;53.570;9.964;2023-01-01T02:35:38;15.00;99.90
44817;DHT22;30529;53.570;9.964;2023-01-01T02:40:52;15.10;99.90
44817;DHT22;30529;53.570;9.964;2023-01-01T02:43:20;15.10;99.90
44817;DHT22;30529;53.570;9.964;2023-01-01T02:45:46;15.00;99.90
44817;DHT22;30529;53.570;9.964;2023-01-01T02:51:03;14.90;99.90
44817;DHT22;30529;53.570;9.964;2023-01-01T02:53:36;14.90;99.90
44817;DHT22;30529;53.570;9.964;2023-01-01T02:56:42;14.90;99.90
44817;DHT22;30529;53.570;9.964;2023-01-01T03:07:40;14.80;99.90
44817;DHT22;30529;53.570;9.964;2023-01-01T03:10:20;14.70;99.90
44817;DHT22;30529;53.570;9.964;2023-01-01T03:15:57;14.70;99.90
44817;DHT22;30529;53.570;9.964;2023-01-01T03:20:56;14.60;99.90
44817;DHT22;30529;53.570;9.964;2023-01-01T03:23:32;14.50;99.90
44817;DHT22;30529;53.570;9.964;2023-01-01T03:26:05;14.50;99.90
44817;DHT22;30529;53.570;9.964;2023-01-01T03:28:35;14.50;99.90
44817;DHT22;30529;53.570;9.964;2023-01-01T03:31:03;14.50;99.90
44817;DHT22;30529;53.570;9.964;2023-01-01T03:33:34;14.50;99.90
44817;DHT22;30529;53.570;9.964;2023-01-01T03:36:10;14.40;99.90
44817;DHT22;30529;53.570;9.964;2023-01-01T03:38:41;14.40;99.90
44817;DHT22;30529;53.570;9.964;2023-01-01T03:41:14;14.40;99.90
44817;DHT22;30529;53.570;9.964;2023-01-01T03:44:16;14.40;99.90
44817;DHT22;30529;53.570;9.964;2023-01-01T03:46:45;14.50;99.90
44817;DHT22;30529;53.570;9.964;2023-01-01T03:49:11;14.50;99.90
44817;DHT22;30529;53.570;9.964;2023-01-01T03:51:54;14.40;99.90
44817;DHT22;30529;53.570;9.964;2023-01-01T03:57:10;14.40;99.90
44817;DHT22;30529;53.570;9.964;2023-01-01T04:00:09;14.50;99.90
44817;DHT22;30529;53.570;9.964;2023-01-01T04:02:44;14.40;99.90
44817;DHT22;30529;53.570;9.964;2023-01-01T04:05:13;14.40;99.90
44817;DHT22;30529;53.570;9.964;2023-01-01T04:07:40;14.40;99.90
44817;DHT22;30529;53.570;9.964;2023-01-01T04:10:07;14.40;99.90
44817;DHT22;30529;53.570;9.964;2023-01-01T04:12:47;14.40;99.90
44817;DHT22;30529;53.570;9.964;2023-01-01T04:15:18;14.40;99.90
44817;DHT22;30529;53.570;9.964;2023-01-01T04:17:45;14.30;99.90
44817;DHT22;30529;53.570;9.964;2023-01-01T04:20:12;14.30;99.90
44817;DHT22;30529;53.570;9.964;2023-01-01T04:22:38;14.40;99.90
44817;DHT22;30529;53.570;9.964;2023-01-01T04:25:05;14.40;99.90
44817;DHT22;30529;53.570;9.964;2023-01-01T04:27:31;14.40;99.90
44817;DHT22;30529;53.570;9.964;2023-01-01T04:29:57;14.30;99.90
44817;DHT22;30529;53.570;9.964;2023-01-01T04:32:23;14.40;99.90
44817;DHT22;30529;53.570;9.964;2023-01-01T04:34:49;14.30;99.90
44817;DHT22;30529;53.570;9.964;2023-01-01T04:37:16;14.30;99.90
44817;DHT22;30529;53.570;9.964;2023-01-01T04:39:42;14.30;99.90
44817;DHT22;30529;53.570;9.964;2023-01-01T04:42:08;14.30;99.90
44817;DHT22;30529;53.570;9.964;2023-01-01T04:44:34;14.30;99.90
44817;DHT22;30529;53.570;9.964;2023-01-01T04:47:00;14.40;99.90
44817;DHT22;30529;53.570;9.964;2023-01-01T04:49:26;14.40;99.90
44817;DHT22;30529;53.570;9.964;2023-01-01T04:51:52;14.30;99.90
44817;DHT22;30529;53.570;9.964;2023-01-01T04:54:18;14.30;99.90
44817;DHT22;30529;53.570;9.964;2023-01-01T04:56:44;14.40;99.90
44817;DHT22;30529;53.570;9.964;2023-01-01T04:59:10;14.30;99.90
44817;DHT22;30529;53.570;9.964;2023-01-01T05:01:36;14.30;99.90
44817;DHT22;30529;53.570;9.964;2023-01-01T05:04:02;14.40;99.90
44817;DHT22;30529;53.570;9.964;2023-01-01T05:06:28;14.40;99.90
44817;DHT22;30529;53.570;9.964;2023-01-01T05:08:55;14.40;99.90
44817;DHT22;30529;53.570;9.964;2023-01-01T05:11:24;14.40;99.90
44817;DHT22;30529;53.570;9.964;2023-01-01T05:13:52;14.40;99.90
44817;DHT22;30529;53.570;9.964;2023-01-01T05:16:21;14.40;99.90
44817;DHT22;30529;53.570;9.964;2023-01-01T05:18:48;14.50;99.90
44817;DHT22;30529;53.570;9.964;2023-01-01T05:21:20;14.50;99.90
44817;DHT22;30529;53.570;9.964;2023-01-01T05:23:46;14.50;99.90
44817;DHT22;30529;53.570;9.964;2023-01-01T05:26:17;14.50;99.90
44817;DHT22;30529;53.570;9.964;2023-01-01T05:28:44;14.50;99.90
44817;DHT22;30529;53.570;9.964;2023-01-01T05:31:13;14.50;99.90
44817;DHT22;30529;53.570;9.964;2023-01-01T05:33:39;14.50;99.90
44817;DHT22;30529;53.570;9.964;2023-01-01T05:36:07;14.50;99.90
44817;DHT22;30529;53.570;9.964;2023-01-01T05:38:34;14.50;99.90
44817;DHT22;30529;53.570;9.964;2023-01-01T05:41:07;14.50;99.90
44817;DHT22;30529;53.570;9.964;2023-01-01T05:43:34;14.50;99.90
44817;DHT22;30529;53.570;9.964;2023-01-01T05:46:05;14.50;99.90
44817;DHT22;30529;53.570;9.964;2023-01-01T05:48:32;14.50;99.90
44817;DHT22;30529;53.570;9.964;2023-01-01T05:51:04;14.50;99.90
44817;DHT22;30529;53.570;9.964;2023-01-01T05:53:30;14.50;99.90
44817;DHT22;30529;53.570;9.964;2023-01-01T05:55:57;14.60;99.90
44817;DHT22;30529;53.570;9.964;2023-01-01T05:58:23;14.60;99.90
44817;DHT22;30529;53.570;9.964;2023-01-01T06:00:49;14.60;99.90
44817;DHT22;30529;53.570;9.964;2023-01-01T06:03:15;14.60;99.90
44817;DHT22;30529;53.570;9.964;2023-01-01T06:05:41;14.60;99.90
44817;DHT22;30529;53.570;9.964;2023-01-01T06:08:07;14.60;99.90
44817;DHT22;30529;53.570;9.964;2023-01-01T06:10:33;14.60;99.90
44817;DHT22;30529;53.570;9.964;2023-01-01T06:12:59;14.60;99.90
44817;DHT22;30529;53.570;9.964;2023-01-01T06:15:26;14.60;99.90
44817;DHT22;30529;53.570;9.964;2023-01-01T06:17:52;14.60;99.90
44817;DHT22;30529;53.570;9.964;2023-01-01T06:20:18;14.60;99.90
44817;DHT22;30529;53.570;9.964;2023-01-01T06:22:44;14.50;99.90
44817;DHT22;30529;53.570;9.964;2023-01-01T06:25:11;14.60;99.90
44817;DHT22;30529;53.570;9.964;2023-01-01T06:27:37;14.60;99.90
44817;DHT22;30529;53.570;9.964;2023-01-01T06:30:05;14.60;99.90
44817;DHT22;30529;53.570;9.964;2023-01-01T06:32:31;14.60;99.90
44817;DHT22;30529;53.570;9.964;2023-01-01T06:34:58;14.60;99.90
44817;DHT22;30529;53.570;9.964;2023-01-01T06:37:24;14.60;99.90
44817;DHT22;30529;53.570;9.964;2023-01-01T06:39:50;14.60;99.90
44817;DHT22;30529;53.570;9.964;2023-01-01T06:42:16;14.60;99.90
44817;DHT22;30529;53.570;9.964;2023-01-01T06:44:41;14.60;99.90
44817;DHT22;30529;53.570;9.964;2023-01-01T06:47:07;14.60;99.90
44817;DHT22;30529;53.570;9.964;2023-01-01T06:49:33;14.60;99.90
44817;DHT22;30529;53.570;9.964;2023-01-01T06:51:59;14.60;99.90
44817;DHT22;30529;53.570;9.964;2023-01-01T06:54:25;14.60;99.90
44817;DHT22;30529;53.570;9.964;2023-01-01T06:56:51;14.60;99.90
44817;DHT22;30529;53.570;9.964;2023-01-01T06:59:17;14.50;99.90
44817;DHT22;30529;53.570;9.964;2023-01-01T07:01:43;14.50;99.90
44817;DHT22;30529;53.570;9.964;2023-01-01T07:04:11;14.50;99.90
44817;DHT22;30529;53.570;9.964;2023-01-01T07:06:38;14.40;99.90
44817;DHT22;30529;53.570;9.964;2023-01-01T07:09:05;14.40;99.90
44817;DHT22;30529;53.570;9.964;2023-01-01T07:11:32;14.40;99.90
44817;DHT22;30529;53.570;9.964;2023-01-01T07:13:58;14.40;99.90
44817;DHT22;30529;53.570;9.964;2023-01-01T07:16:24;14.40;99.90
44817;DHT22;30529;53.570;9.964;2023-01-01T07:18:51;14.30;99.90
44817;DHT22;30529;53.570;9.964;2023-01-01T07:23:51;14.20;99.90
44817;DHT22;30529;53.570;9.964;2023-01-01T07:26:16;14.20;99.90
44817;DHT22;30529;53.570;9.964;2023-01-01T07:28:43;14.20;99.90
44817;DHT22;30529;53.570;9.964;2023-01-01T07:31:09;14.20;99.90
44817;DHT22;30529;53.570;9.964;2023-01-01T07:33:35;14.20;99.90
44817;DHT22;30529;53.570;9.964;2023-01-01T07:36:01;14.20;99.90
44817;DHT22;30529;53.570;9.964;2023-01-01T07:38:27;14.20;99.90
44817;DHT22;30529;53.570;9.964;2023-01-01T07:40:53;14.20;99.90
44817;DHT22;30529;53.570;9.964;2023-01-01T07:43:19;14.10;99.90
44817;DHT22;30529;53.570;9.964;2023-01-01T07:45:45;14.10;99.90
44817;DHT22;30529;53.570;9.964;2023-01-01T07:48:14;14.10;99.90
44817;DHT22;30529;53.570;9.964;2023-01-01T07:50:40;14.10;99.90
44817;DHT22;30529;53.570;9.964;2023-01-01T07:53:06;14.10;99.90
44817;DHT22;30529;53.570;9.964;2023-01-01T07:55:32;14.10;99.90
44817;DHT22;30529;53.570;9.964;2023-01-01T07:58:01;14.10;99.90
44817;DHT22;30529;53.570;9.964;2023-01-01T08:00:28;14.10;99.90
44817;DHT22;30529;53.570;9.964;2023-01-01T08:02:54;14.20;99.90
44817;DHT22;30529;53.570;9.964;2023-01-01T08:05:20;14.20;99.90
44817;DHT22;30529;53.570;9.964;2023-01-01T08:07:47;14.20;99.90
44817;DHT22;30529;53.570;9.964;2023-01-01T08:10:14;14.20;99.90
44817;DHT22;30529;53.570;9.964;2023-01-01T08:12:40;14.20;99.90
44817;DHT22;30529;53.570;9.964;2023-01-01T08:15:07;14.20;99.90
44817;DHT22;30529;53.570;9.964;2023-01-01T08:17:33;14.20;99.90
44817;DHT22;30529;53.570;9.964;2023-01-01T08:19:59;14.20;99.90
44817;DHT22;30529;53.570;9.964;2023-01-01T08:22:25;14.10;99.90
44817;DHT22;30529;53.570;9.964;2023-01-01T08:24:51;14.20;99.90
44817;DHT22;30529;53.570;9.964;2023-01-01T08:27:17;14.10;99.90
44817;DHT22;30529;53.570;9.964;2023-01-01T08:29:44;14.10;99.90
44817;DHT22;30529;53.570;9.964;2023-01-01T08:32:11;14.10;99.90
44817;DHT22;30529;53.570;9.964;2023-01-01T08:34:37;14.10;99.90
44817;DHT22;30529;53.570;9.964;2023-01-01T08:37:04;14.10;99.90
44817;DHT22;30529;53.570;9.964;2023-01-01T08:39:30;14.10;99.90
44817;DHT22;30529;53.570;9.964;2023-01-01T08:41:56;14.10;99.90
44817;DHT22;30529;53.570;9.964;2023-01-01T08:44:22;14.20;99.90
44817;DHT22;30529;53.570;9.964;2023-01-01T08:46:48;14.20;99.90
44817;DHT22;30529;53.570;9.964;2023-01-01T08:49:16;14.20;99.90
44817;DHT22;30529;53.570;9.964;2023-01-01T08:51:42;14.20;99.90
44817;DHT22;30529;53.570;9.964;2023-01-01T08:54:08;14.20;99.90
44817;DHT22;30529;53.570;9.964;2023-01-01T08:56:35;14.30;99.90
44817;DHT22;30529;53.570;9.964;2023-01-01T08:59:02;14.30;99.90
44817;DHT22;30529;53.570;9.964;2023-01-01T09:01:28;14.30;99.90
44817;DHT22;30529;53.570;9.964;2023-01-01T09:03:54;14.30;99.90
44817;DHT22;30529;53.570;9.964;2023-01-01T09:06:21;14.30;99.90
44817;DHT22;30529;53.570;9.964;2023-01-01T09:08:47;14.30;99.90
44817;DHT22;30529;53.570;9.964;2023-01-01T09:13:46;14.40;99.90
44817;DHT22;30529;53.570;9.964;2023-01-01T09:16:12;14.30;99.90
44817;DHT22;30529;53.570;9.964;2023-01-01T09:18:38;14.40;99.90
44817;DHT22;30529;53.570;9.964;2023-01-01T09:21:05;14.30;99.90
44817;DHT22;30529;53.570;9.964;2023-01-01T09:23:31;14.30;99.90
44817;DHT22;30529;53.570;9.964;2023-01-01T09:26:02;14.20;99.90
44817;DHT22;30529;53.570;9.964;2023-01-01T09:28:29;14.10;99.90
44817;DHT22;30529;53.570;9.964;2023-01-01T09:30:55;14.00;99.90
44817;DHT22;30529;53.570;9.964;2023-01-01T09:33:21;13.90;99.90
44817;DHT22;30529;53.570;9.964;2023-01-01T09:35:47;13.90;99.90
44817;DHT22;30529;53.570;9.964;2023-01-01T09:38:13;14.00;99.90
44817;DHT22;30529;53.570;9.964;2023-01-01T09:43:37;14.20;99.90
44817;DHT22;30529;53.570;9.964;2023-01-01T09:46:07;14.20;99.90
44817;DHT22;30529;53.570;9.964;2023-01-01T09:48:37;14.30;99.90
44817;DHT22;30529;53.570;9.964;2023-01-01T09:51:10;14.30;99.90
44817;DHT22;30529;53.570;9.964;2023-01-01T09:54:00;14.30;99.90
44817;DHT22;30529;53.570;9.964;2023-01-01T09:56:30;14.30;99.90
44817;DHT22;30529;53.570;9.964;2023-01-01T09:58:57;14.30;99.90
44817;DHT22;30529;53.570;9.964;2023-01-01T10:01:49;14.30;99.90
44817;DHT22;30529;53.570;9.964;2023-01-01T10:04:24;14.30;99.90
44817;DHT22;30529;53.570;9.964;2023-01-01T10:07:14;14.30;99.90
44817;DHT22;30529;53.570;9.964;2023-01-01T10:12:41;14.30;99.90
44817;DHT22;30529;53.570;9.964;2023-01-01T10:15:27;14.30;99.90
44817;DHT22;30529;53.570;9.964;2023-01-01T10:17:57;14.40;99.90
44817;DHT22;30529;53.570;9.964;2023-01-01T10:20:36;14.40;99.90
44817;DHT22;30529;53.570;9.964;2023-01-01T10:23:18;14.40;99.90
44817;DHT22;30529;53.570;9.964;2023-01-01T10:25:46;14.40;99.90
44817;DHT22;30529;53.570;9.964;2023-01-01T10:28:26;14.50;99.90
44817;DHT22;30529;53.570;9.964;2023-01-01T10:31:26;14.60;99.90
44817;DHT22;30529;53.570;9.964;2023-01-01T10:33:54;14.60;99.90
44817;DHT22;30529;53.570;9.964;2023-01-01T10:36:20;14.70;99.90
44817;DHT22;30529;53.570;9.964;2023-01-01T10:38:47;14.60;99.90
44817;DHT22;30529;53.570;9.964;2023-01-01T10:41:14;14.50;99.90
44817;DHT22;30529;53.570;9.964;2023-01-01T10:43:43;14.50;99.90
44817;DHT22;30529;53.570;9.964;2023-01-01T10:46:12;14.40;99.90
44817;DHT22;30529;53.570;9.964;2023-01-01T10:51:29;14.50;99.90
44817;DHT22;30529;53.570;9.964;2023-01-01T10:53:56;14.40;99.90
44817;DHT22;30529;53.570;9.964;2023-01-01T10:56:23;14.40;99.90
44817;DHT22;30529;53.570;9.964;2023-01-01T10:58:51;14.30;99.90
44817;DHT22;30529;53.570;9.964;2023-01-01T11:01:22;14.20;99.90
44817;DHT22;30529;53.570;9.964;2023-01-01T11:06:30;14.10;99.90
44817;DHT22;30529;53.570;9.964;2023-01-01T11:09:03;14.00;99.90
44817;DHT22;30529;53.570;9.964;2023-01-01T11:11:43;13.90;99.90
44817;DHT22;30529;53.570;9.964;2023-01-01T11:14:24;13.90;99.90
44817;DHT22;30529;53.570;9.964;2023-01-01T11:16:52;13.80;99.90
44817;DHT22;30529;53.570;9.964;2023-01-01T11:19:38;13.80;99.90
44817;DHT22;30529;53.570;9.964;2023-01-01T11:22:06;13.80;99.90
44817;DHT22;30529;53.570;9.964;2023-01-01T11:24:35;13.80;99.90
44817;DHT22;30529;53.570;9.964;2023-01-01T11:27:22;13.80;99.90
44817;DHT22;30529;53.570;9.964;2023-01-01T11:29:48;13.90;99.90
44817;DHT22;30529;53.570;9.964;2023-01-01T11:32:21;13.90;99.90
44817;DHT22;30529;53.570;9.964;2023-01-01T11:35:02;13.80;99.90
44817;DHT22;30529;53.570;9.964;2023-01-01T11:37:33;13.80;99.90
44817;DHT22;30529;53.570;9.964;2023-01-01T11:40:03;13.70;99.90
44817;DHT22;30529;53.570;9.964;2023-01-01T11:42:35;13.70;99.90
44817;DHT22;30529;53.570;9.964;2023-01-01T11:45:38;13.70;99.90
44817;DHT22;30529;53.570;9.964;2023-01-01T11:48:12;13.70;99.90
44817;DHT22;30529;53.570;9.964;2023-01-01T11:50:47;13.70;99.90
44817;DHT22;30529;53.570;9.964;2023-01-01T11:58:47;13.70;99.90
44817;DHT22;30529;53.570;9.964;2023-01-01T12:01:21;13.70;99.90
44817;DHT22;30529;53.570;9.964;2023-01-01T12:04:10;13.60;99.90
44817;DHT22;30529;53.570;9.964;2023-01-01T12:15:17;13.80;99.90
44817;DHT22;30529;53.570;9.964;2023-01-01T12:17:54;14.10;99.90
44817;DHT22;30529;53.570;9.964;2023-01-01T12:20:29;14.20;99.90
44817;DHT22;30529;53.570;9.964;2023-01-01T12:22:58;14.30;99.90
44817;DHT22;30529;53.570;9.964;2023-01-01T12:25:35;14.40;99.90
44817;DHT22;30529;53.570;9.964;2023-01-01T12:37:18;14.80;99.90
44817;DHT22;30529;53.570;9.964;2023-01-01T12:43:10;14.80;99.90
44817;DHT22;30529;53.570;9.964;2023-01-01T12:45:54;14.40;99.90
44817;DHT22;30529;53.570;9.964;2023-01-01T12:51:34;13.90;99.90
44817;DHT22;30529;53.570;9.964;2023-01-01T12:59:46;13.50;99.90
44817;DHT22;30529;53.570;9.964;2023-01-01T13:02:19;13.60;99.90
44817;DHT22;30529;53.570;9.964;2023-01-01T13:04:50;13.90;99.90
44817;DHT22;30529;53.570;9.964;2023-01-01T13:07:24;13.70;99.90
44817;DHT22;30529;53.570;9.964;2023-01-01T13:09:52;13.70;99.90
44817;DHT22;30529;53.570;9.964;2023-01-01T13:12:20;13.70;99.90
44817;DHT22;30529;53.570;9.964;2023-01-01T13:14:51;13.60;99.90
44817;DHT22;30529;53.570;9.964;2023-01-01T13:17:23;13.50;99.90
44817;DHT22;30529;53.570;9.964;2023-01-01T13:19:57;13.40;99.90
44817;DHT22;30529;53.570;9.964;2023-01-01T13:33:25;13.00;99.90
44817;DHT22;30529;53.570;9.964;2023-01-01T13:38:50;13.00;99.90
44817;DHT22;30529;53.570;9.964;2023-01-01T13:49:48;13.00;99.90
44817;DHT22;30529;53.570;9.964;2023-01-01T13:52:44;13.00;99.90
44817;DHT22;30529;53.570;9.964;2023-01-01T13:58:07;12.80;99.90
44817;DHT22;30529;53.570;9.964;2023-01-01T14:03:26;12.70;99.90
44817;DHT22;30529;53.570;9.964;2023-01-01T14:05:58;12.60;99.90
44817;DHT22;30529;53.570;9.964;2023-01-01T14:08:33;12.60;99.90
44817;DHT22;30529;53.570;9.964;2023-01-01T14:11:01;12.60;99.90
44817;DHT22;30529;53.570;9.964;2023-01-01T14:13:29;12.50;99.90
44817;DHT22;30529;53.570;9.964;2023-01-01T14:16:02;12.50;99.90
44817;DHT22;30529;53.570;9.964;2023-01-01T14:18:42;12.50;99.90
44817;DHT22;30529;53.570;9.964;2023-01-01T14:21:17;12.40;99.90
44817;DHT22;30529;53.570;9.964;2023-01-01T14:23:47;12.50;99.90
44817;DHT22;30529;53.570;9.964;2023-01-01T14:26:16;12.40;99.90
44817;DHT22;30529;53.570;9.964;2023-01-01T14:28:43;12.40;99.90
44817;DHT22;30529;53.570;9.964;2023-01-01T14:31:21;12.40;99.90
44817;DHT22;30529;53.570;9.964;2023-01-01T14:33:49;12.40;99.90
44817;DHT22;30529;53.570;9.964;2023-01-01T14:36:27;12.30;99.90
44817;DHT22;30529;53.570;9.964;2023-01-01T14:38:56;12.30;99.90
44817;DHT22;30529;53.570;9.964;2023-01-01T14:41:39;12.30;99.90
44817;DHT22;30529;53.570;9.964;2023-01-01T14:44:11;12.30;99.90
44817;DHT22;30529;53.570;9.964;2023-01-01T14:46:44;12.20;99.90
44817;DHT22;30529;53.570;9.964;2023-01-01T14:49:16;12.20;99.90
44817;DHT22;30529;53.570;9.964;2023-01-01T14:51:46;12.20;99.90
44817;DHT22;30529;53.570;9.964;2023-01-01T14:54:18;12.10;99.90
44817;DHT22;30529;53.570;9.964;2023-01-01T14:56:49;12.10;99.90
44817;DHT22;30529;53.570;9.964;2023-01-01T14:59:25;12.10;99.90
44817;DHT22;30529;53.570;9.964;2023-01-01T15:04:24;12.00;99.90
44817;DHT22;30529;53.570;9.964;2023-01-01T15:06:58;12.00;99.90
44817;DHT22;30529;53.570;9.964;2023-01-01T15:09:25;12.00;99.90
44817;DHT22;30529;53.570;9.964;2023-01-01T15:11:55;11.90;99.90
44817;DHT22;30529;53.570;9.964;2023-01-01T15:19:27;11.80;99.90
44817;DHT22;30529;53.570;9.964;2023-01-01T15:21:53;11.80;99.90
44817;DHT22;30529;53.570;9.964;2023-01-01T15:24:20;11.70;99.90
44817;DHT22;30529;53.570;9.964;2023-01-01T15:26:52;11.70;99.90
44817;DHT22;30529;53.570;9.964;2023-01-01T15:29:32;11.70;99.90
44817;DHT22;30529;53.570;9.964;2023-01-01T15:32:04;11.70;99.90
44817;DHT22;30529;53.570;9.964;2023-01-01T15:34:54;11.70;99.90
44817;DHT22;30529;53.570;9.964;2023-01-01T15:37:43;11.70;99.90
44817;DHT22;30529;53.570;9.964;2023-01-01T15:42:41;11.60;99.90
44817;DHT22;30529;53.570;9.964;2023-01-01T15:45:18;11.60;99.90
44817;DHT22;30529;53.570;9.964;2023-01-01T15:47:50;11.60;99.90
44817;DHT22;30529;53.570;9.964;2023-01-01T15:52:55;11.60;99.90
44817;DHT22;30529;53.570;9.964;2023-01-01T15:55:22;11.70;99.90
44817;DHT22;30529;53.570;9.964;2023-01-01T15:57:49;11.70;99.90
44817;DHT22;30529;53.570;9.964;2023-01-01T16:00:36;11.70;99.90
44817;DHT22;30529;53.570;9.964;2023-01-01T16:03:20;11.80;99.90
44817;DHT22;30529;53.570;9.964;2023-01-01T16:05:49;11.80;99.90
44817;DHT22;30529;53.570;9.964;2023-01-01T16:08:16;11.80;99.90
44817;DHT22;30529;53.570;9.964;2023-01-01T16:10:43;11.80;99.90
44817;DHT22;30529;53.570;9.964;2023-01-01T16:13:10;11.90;99.90
44817;DHT22;30529;53.570;9.964;2023-01-01T16:15:48;12.00;99.90
44817;DHT22;30529;53.570;9.964;2023-01-01T16:18:16;12.10;99.90
44817;DHT22;30529;53.570;9.964;2023-01-01T16:20:42;12.10;99.90
44817;DHT22;30529;53.570;9.964;2023-01-01T16:23:09;12.10;99.90
44817;DHT22;30529;53.570;9.964;2023-01-01T16:25:35;12.10;99.90
44817;DHT22;30529;53.570;9.964;2023-01-01T16:28:01;12.10;99.90
44817;DHT22;30529;53.570;9.964;2023-01-01T16:30:29;12.10;99.90
44817;DHT22;30529;53.570;9.964;2023-01-01T16:32:55;12.10;99.90
44817;DHT22;30529;53.570;9.964;2023-01-01T16:35:21;12.00;99.90
44817;DHT22;30529;53.570;9.964;2023-01-01T16:37:47;12.00;99.90
44817;DHT22;30529;53.570;9.964;2023-01-01T16:40:13;12.00;99.90
44817;DHT22;30529;53.570;9.964;2023-01-01T16:42:40;12.00;99.90
44817;DHT22;30529;53.570;9.964;2023-01-01T16:45:06;12.00;99.90
44817;DHT22;30529;53.570;9.964;2023-01-01T16:47:33;12.10;99.90
44817;DHT22;30529;53.570;9.964;2023-01-01T16:49:58;12.10;99.90
44817;DHT22;30529;53.570;9.964;2023-01-01T16:52:24;12.10;99.90
44817;DHT22;30529;53.570;9.964;2023-01-01T16:54:50;12.10;99.90
44817;DHT22;30529;53.570;9.964;2023-01-01T16:57:16;12.10;99.90
44817;DHT22;30529;53.570;9.964;2023-01-01T16:59:42;12.10;99.90
44817;DHT22;30529;53.570;9.964;2023-01-01T17:02:09;12.10;99.90
44817;DHT22;30529;53.570;9.964;2023-01-01T17:04:35;12.10;99.90
44817;DHT22;30529;53.570;9.964;2023-01-01T17:07:01;12.00;99.90
44817;DHT22;30529;53.570;9.964;2023-01-01T17:09:27;12.00;99.90
44817;DHT22;30529;53.570;9.964;2023-01-01T17:11:53;12.00;99.90
44817;DHT22;30529;53.570;9.964;2023-01-01T17:14:19;12.00;99.90
44817;DHT22;30529;53.570;9.964;2023-01-01T17:16:45;12.00;99.90
44817;DHT22;30529;53.570;9.964;2023-01-01T17:19:11;12.00;99.90
44817;DHT22;30529;53.570;9.964;2023-01-01T17:21:38;12.00;99.90
44817;DHT22;30529;53.570;9.964;2023-01-01T17:24:05;12.00;99.90
44817;DHT22;30529;53.570;9.964;2023-01-01T17:26:31;12.10;99.90
44817;DHT22;30529;53.570;9.964;2023-01-01T17:28:59;12.10;99.90
44817;DHT22;30529;53.570;9.964;2023-01-01T17:31:26;12.10;99.90
44817;DHT22;30529;53.570;9.964;2023-01-01T17:33:53;12.10;99.90
44817;DHT22;30529;53.570;9.964;2023-01-01T17:36:19;12.10;99.90
44817;DHT22;30529;53.570;9.964;2023-01-01T17:38:45;12.10;99.90
44817;DHT22;30529;53.570;9.964;2023-01-01T17:41:14;12.10;99.90
44817;DHT22;30529;53.570;9.964;2023-01-01T17:43:42;12.10;99.90
44817;DHT22;30529;53.570;9.964;2023-01-01T17:46:17;12.10;99.90
44817;DHT22;30529;53.570;9.964;2023-01-01T17:48:44;12.10;99.90
44817;DHT22;30529;53.570;9.964;2023-01-01T17:51:11;12.10;99.90
44817;DHT22;30529;53.570;9.964;2023-01-01T17:53:38;12.10;99.90
44817;DHT22;30529;53.570;9.964;2023-01-01T17:56:05;12.10;99.90